createdAt,value
2023-04-16T00:00:03.289Z,28.25
2023-04-16T00:02:31.036Z,29.63
2023-04-16T00:04:58.677Z,30.80
2023-04-16T00:07:26.332Z,32.45
2023-04-16T00:09:53.839Z,23.75
2023-04-16T00:12:21.577Z,29.38
2023-04-16T00:14:50.392Z,32.72
2023-04-16T00:17:17.886Z,33.00
2023-04-16T00:19:45.572Z,27.27
2023-04-16T00:22:13.099Z,28.35
2023-04-16T00:24:40.617Z,28.45
2023-04-16T00:27:08.086Z,28.77
2023-04-16T00:29:35.717Z,28.95
2023-04-16T00:32:04.499Z,29.75
2023-04-16T00:34:31.973Z,30.70
2023-04-16T00:36:59.458Z,29.55
2023-04-16T00:39:26.960Z,29.63
2023-04-16T00:41:54.551Z,30.88
2023-04-16T00:44:22.123Z,30.73
2023-04-16T00:46:49.774Z,29.98
2023-04-16T00:49:18.735Z,31.35
2023-04-16T00:51:46.235Z,31.10
2023-04-16T00:54:13.744Z,30.05
2023-04-16T00:56:41.484Z,29.23
2023-04-16T00:59:09.905Z,28.45
2023-04-16T01:01:37.810Z,29.35
2023-04-16T01:04:07.130Z,29.60
2023-04-16T01:06:36.240Z,31.20
2023-04-16T01:09:03.889Z,32.13
2023-04-16T01:11:31.365Z,29.75
2023-04-16T01:13:58.873Z,29.48
2023-04-16T01:16:26.702Z,29.92
2023-04-16T01:18:54.304Z,31.17
2023-04-16T01:21:23.091Z,29.25
2023-04-16T01:23:50.606Z,31.55
2023-04-16T01:26:18.085Z,23.88
2023-04-16T01:28:45.652Z,26.50
2023-04-16T01:31:13.156Z,30.90
2023-04-16T01:33:40.734Z,31.55
2023-04-16T01:36:08.501Z,31.33
2023-04-16T01:38:37.315Z,31.70
2023-04-16T01:41:04.852Z,31.48
2023-04-16T01:43:32.430Z,32.45
2023-04-16T01:46:12.614Z,31.65
2023-04-16T01:48:40.185Z,24.95
2023-04-16T01:51:09.195Z,34.28
2023-04-16T01:53:38.113Z,28.38
2023-04-16T01:56:06.878Z,32.58
2023-04-16T01:58:34.694Z,29.58
2023-04-16T02:01:02.305Z,33.25
2023-04-16T02:03:30.026Z,33.47
2023-04-16T02:05:57.711Z,34.22
2023-04-16T02:08:25.406Z,28.25
2023-04-16T02:10:54.710Z,32.95
2023-04-16T02:13:23.256Z,31.60
2023-04-16T02:15:51.641Z,31.95
2023-04-16T02:18:19.870Z,28.95
2023-04-16T02:20:49.500Z,36.63
2023-04-16T02:23:17.050Z,33.70
2023-04-16T02:25:46.318Z,27.52
2023-04-16T02:28:16.646Z,31.42
2023-04-16T02:30:44.520Z,33.80
2023-04-16T02:33:13.021Z,32.90
2023-04-16T02:35:41.046Z,19.27
2023-04-16T02:38:08.885Z,34.42
2023-04-16T02:40:36.650Z,32.00
2023-04-16T02:43:04.409Z,35.58
2023-04-16T02:45:33.297Z,37.13
2023-04-16T02:48:01.632Z,32.50
2023-04-16T02:50:29.163Z,31.77
2023-04-16T02:52:56.754Z,30.67
2023-04-16T02:55:24.248Z,29.80
2023-04-16T02:57:52.771Z,31.60
2023-04-16T03:00:20.787Z,36.40
2023-04-16T03:02:49.827Z,34.72
2023-04-16T03:05:17.669Z,32.38
2023-04-16T03:07:45.403Z,35.70
2023-04-16T03:10:13.864Z,32.42
2023-04-16T03:12:41.470Z,33.03
2023-04-16T03:15:09.947Z,35.15
2023-04-16T03:17:37.571Z,32.90
2023-04-16T03:20:08.300Z,34.33
2023-04-16T03:22:35.920Z,33.13
2023-04-16T03:25:03.541Z,35.85
2023-04-16T03:27:31.137Z,33.60
2023-04-16T03:29:58.723Z,34.92
2023-04-16T03:32:26.758Z,32.88
2023-04-16T03:34:54.363Z,33.92
2023-04-16T03:37:23.202Z,35.10
2023-04-16T03:39:50.690Z,31.13
2023-04-16T03:42:18.191Z,30.63
2023-04-16T03:44:45.924Z,28.45
2023-04-16T03:47:13.433Z,33.10
2023-04-16T03:49:40.940Z,34.60
2023-04-16T03:52:08.438Z,33.22
2023-04-16T03:54:37.245Z,29.02
2023-04-16T03:57:05.143Z,34.63
2023-04-16T03:59:32.622Z,34.95
2023-04-16T04:02:00.338Z,34.15
2023-04-16T04:04:28.010Z,32.33
2023-04-16T04:06:55.654Z,34.35
2023-04-16T04:09:23.120Z,34.40
2023-04-16T04:11:51.969Z,30.92
2023-04-16T04:14:19.450Z,28.17
2023-04-16T04:16:46.979Z,31.80
2023-04-16T04:19:14.528Z,29.15
2023-04-16T04:21:42.065Z,32.70
2023-04-16T04:24:09.661Z,35.75
2023-04-16T04:26:37.250Z,32.70
2023-04-16T04:29:06.200Z,31.15
2023-04-16T04:31:33.745Z,36.78
2023-04-16T04:34:01.362Z,30.55
2023-04-16T04:36:28.961Z,29.00
2023-04-16T04:38:56.479Z,36.55
2023-04-16T04:41:23.998Z,35.28
2023-04-16T04:43:51.884Z,34.17
2023-04-16T04:46:20.874Z,34.30
2023-04-16T04:48:48.501Z,30.70
2023-04-16T04:51:15.979Z,33.90
2023-04-16T04:53:43.470Z,33.28
2023-04-16T04:56:12.889Z,36.55
2023-04-16T04:58:41.304Z,34.40
2023-04-16T05:01:08.882Z,26.58
2023-04-16T05:03:38.080Z,34.75
2023-04-16T05:06:06.107Z,36.05
2023-04-16T05:08:33.671Z,34.17
2023-04-16T05:11:01.487Z,30.50
2023-04-16T05:13:28.984Z,34.28
2023-04-16T05:15:56.484Z,35.70
2023-04-16T05:18:24.024Z,35.75
2023-04-16T05:20:52.847Z,31.15
2023-04-16T05:23:20.411Z,28.90
2023-04-16T05:25:47.913Z,35.58
2023-04-16T05:28:15.393Z,34.33
2023-04-16T05:30:42.922Z,35.35
2023-04-16T05:33:10.451Z,34.33
2023-04-16T05:35:39.998Z,33.65
2023-04-16T05:38:08.801Z,30.95
2023-04-16T05:40:36.332Z,31.92
2023-04-16T05:43:03.896Z,36.38
2023-04-16T05:45:33.354Z,32.75
2023-04-16T05:48:00.850Z,30.70
2023-04-16T05:50:28.380Z,30.60
2023-04-16T05:52:55.866Z,31.75
2023-04-16T05:55:24.670Z,32.92
2023-04-16T05:57:52.184Z,33.60
2023-04-16T06:00:19.772Z,32.45
2023-04-16T06:02:47.337Z,33.58
2023-04-16T06:05:15.084Z,30.08
2023-04-16T06:07:42.634Z,33.85
2023-04-16T06:10:11.114Z,33.50
2023-04-16T06:12:40.023Z,34.20
2023-04-16T06:15:08.797Z,33.88
2023-04-16T06:17:36.305Z,30.45
2023-04-16T06:20:04.799Z,34.17
2023-04-16T06:22:32.408Z,33.00
2023-04-16T06:24:59.891Z,33.13
2023-04-16T06:27:27.564Z,33.35
2023-04-16T06:29:57.949Z,33.33
2023-04-16T06:32:25.955Z,50.13
2023-04-16T06:34:53.473Z,68.88
2023-04-16T06:37:20.944Z,43.35
2023-04-16T06:39:48.442Z,48.22
2023-04-16T06:42:16.123Z,70.53
2023-04-16T06:44:43.639Z,39.42
2023-04-16T06:47:12.570Z,34.55
2023-04-16T06:49:40.374Z,34.80
2023-04-16T06:52:07.977Z,35.90
2023-04-16T06:54:35.500Z,31.10
2023-04-16T06:57:03.010Z,33.25
2023-04-16T06:59:30.523Z,33.03
2023-04-16T07:01:58.258Z,30.85
2023-04-16T07:04:27.201Z,36.25
2023-04-16T07:06:54.697Z,43.53
2023-04-16T07:09:22.309Z,33.70
2023-04-16T07:11:49.869Z,32.03
2023-04-16T07:14:17.416Z,32.28
2023-04-16T07:16:44.919Z,31.17
2023-04-16T07:19:12.491Z,36.97
2023-04-16T07:21:43.541Z,29.92
2023-04-16T07:24:11.311Z,32.17
2023-04-16T07:26:38.826Z,33.13
2023-04-16T07:29:06.370Z,37.17
2023-04-16T07:31:33.894Z,36.83
2023-04-16T07:34:01.408Z,29.75
2023-04-16T07:36:29.217Z,31.33
2023-04-16T07:38:58.037Z,30.55
2023-04-16T07:41:25.884Z,51.80
2023-04-16T07:43:53.384Z,46.65
2023-04-16T07:46:21.147Z,34.72
2023-04-16T07:48:48.729Z,35.13
2023-04-16T07:51:16.289Z,28.83
2023-04-16T07:53:43.787Z,33.28
2023-04-16T07:56:12.666Z,32.45
2023-04-16T07:58:40.279Z,38.78
2023-04-16T08:01:07.786Z,34.10
2023-04-16T08:03:35.496Z,38.75
2023-04-16T08:06:03.365Z,38.00
2023-04-16T08:08:30.840Z,34.78
2023-04-16T08:10:58.516Z,30.38
2023-04-16T08:13:27.347Z,28.85
2023-04-16T08:15:54.864Z,27.80
2023-04-16T08:18:22.380Z,32.20
2023-04-16T08:20:49.852Z,30.70
2023-04-16T08:23:17.359Z,30.50
2023-04-16T08:25:44.820Z,30.13
2023-04-16T08:28:12.331Z,32.83
2023-04-16T08:30:41.243Z,30.88
2023-04-16T08:33:09.140Z,30.38
2023-04-16T08:35:36.864Z,33.92
2023-04-16T08:38:04.734Z,27.52
2023-04-16T08:40:32.438Z,35.53
2023-04-16T08:43:01.008Z,30.15
2023-04-16T08:45:28.535Z,30.20
2023-04-16T08:47:57.722Z,29.77
2023-04-16T08:50:26.599Z,31.02
2023-04-16T08:52:57.507Z,29.42
2023-04-16T08:55:27.893Z,29.05
2023-04-16T08:57:59.183Z,26.42
2023-04-16T09:00:26.910Z,27.48
2023-04-16T09:02:54.988Z,28.23
2023-04-16T09:05:25.740Z,28.50
2023-04-16T09:07:54.172Z,29.85
2023-04-16T09:10:21.883Z,28.80
2023-04-16T09:12:49.424Z,26.80
2023-04-16T09:15:16.939Z,30.23
2023-04-16T09:17:44.511Z,28.65
2023-04-16T09:20:12.557Z,28.65
2023-04-16T09:22:41.495Z,31.98
2023-04-16T09:25:09.842Z,26.02
2023-04-16T09:27:37.947Z,33.38
2023-04-16T09:30:21.912Z,30.02
2023-04-16T09:32:49.976Z,30.65
2023-04-16T09:35:18.799Z,28.17
2023-04-16T09:37:57.614Z,31.70
2023-04-16T09:40:26.125Z,28.95
2023-04-16T09:42:56.066Z,31.45
2023-04-16T09:45:23.815Z,34.10
2023-04-16T09:47:51.522Z,33.70
2023-04-16T09:50:20.536Z,34.30
2023-04-16T09:52:51.409Z,32.22
2023-04-16T09:55:23.975Z,32.13
2023-04-16T09:57:59.847Z,32.20
2023-04-16T10:00:27.388Z,34.13
2023-04-16T10:03:04.901Z,30.52
2023-04-16T10:05:32.452Z,30.58
2023-04-16T10:08:02.580Z,31.80
2023-04-16T10:10:30.491Z,32.35
2023-04-16T10:12:58.507Z,34.53
2023-04-16T10:15:26.264Z,29.60
2023-04-16T10:17:55.141Z,34.20
2023-04-16T10:20:23.853Z,32.92
2023-04-16T10:22:51.440Z,31.17
2023-04-16T10:25:20.921Z,34.90
2023-04-16T10:27:48.999Z,35.28
2023-04-16T10:30:16.690Z,32.42
2023-04-16T10:32:44.812Z,34.30
2023-04-16T10:35:16.781Z,32.65
2023-04-16T10:37:46.094Z,32.90
2023-04-16T10:40:24.875Z,31.88
2023-04-16T10:42:58.117Z,33.70
2023-04-16T10:45:32.420Z,30.02
2023-04-16T10:48:00.057Z,33.45
2023-04-16T10:50:36.055Z,33.88
2023-04-16T10:53:24.021Z,35.00
2023-04-16T10:56:00.458Z,32.85
2023-04-16T10:58:28.573Z,32.45
2023-04-16T11:00:56.074Z,33.38
2023-04-16T11:03:23.703Z,37.67
2023-04-16T11:05:51.269Z,40.38
2023-04-16T11:08:18.761Z,31.67
2023-04-16T11:10:46.296Z,29.77
2023-04-16T11:13:15.294Z,31.55
2023-04-16T11:15:42.815Z,30.27
2023-04-16T11:18:10.750Z,31.17
2023-04-16T11:20:42.544Z,32.97
2023-04-16T11:23:13.083Z,31.83
2023-04-16T11:25:40.686Z,30.27
2023-04-16T11:28:08.190Z,31.52
2023-04-16T11:30:38.606Z,29.45
2023-04-16T11:33:06.722Z,32.55
2023-04-16T11:35:34.390Z,31.67
2023-04-16T11:38:02.264Z,33.00
2023-04-16T11:40:30.851Z,33.30
2023-04-16T11:43:02.758Z,33.70
2023-04-16T11:45:30.509Z,33.07
2023-04-16T11:47:59.392Z,31.95
2023-04-16T11:50:27.730Z,31.27
2023-04-16T11:52:57.081Z,29.70
2023-04-16T11:55:25.057Z,31.52
2023-04-16T11:57:52.579Z,28.63
2023-04-16T12:00:21.607Z,27.85
2023-04-16T12:02:53.331Z,28.10
2023-04-16T12:05:30.839Z,31.00
2023-04-16T12:07:59.019Z,30.65
2023-04-16T12:10:27.404Z,28.95
2023-04-16T12:12:55.005Z,29.63
2023-04-16T12:15:22.511Z,30.25
2023-04-16T12:17:50.559Z,28.42
2023-04-16T12:20:18.116Z,28.77
2023-04-16T12:22:49.450Z,28.55
2023-04-16T12:25:18.777Z,30.35
2023-04-16T12:27:48.616Z,28.48
2023-04-16T12:30:18.399Z,29.88
2023-04-16T12:32:47.543Z,30.75
2023-04-16T12:35:15.643Z,28.77
2023-04-16T12:37:43.159Z,28.58
2023-04-16T12:40:12.554Z,35.42
2023-04-16T12:42:40.243Z,28.60
2023-04-16T12:45:08.416Z,29.27
2023-04-16T12:47:36.025Z,33.95
2023-04-16T12:50:03.653Z,29.60
2023-04-16T12:52:31.194Z,30.10
2023-04-16T12:54:58.706Z,27.05
2023-04-16T12:57:28.726Z,29.20
2023-04-16T12:59:56.965Z,29.33
2023-04-16T13:02:24.778Z,28.70
2023-04-16T13:04:52.649Z,32.60
2023-04-16T13:07:20.385Z,28.35
2023-04-16T13:09:48.243Z,27.55
2023-04-16T13:12:15.735Z,28.63
2023-04-16T13:14:45.200Z,28.30
2023-04-16T13:17:12.759Z,26.48
2023-04-16T13:19:40.292Z,29.65
2023-04-16T13:22:07.793Z,25.23
2023-04-16T13:24:35.435Z,24.17
2023-04-16T13:27:03.134Z,25.50
2023-04-16T13:29:30.914Z,23.13
2023-04-16T13:31:59.753Z,24.55
2023-04-16T13:34:27.421Z,23.17
2023-04-16T13:36:54.897Z,22.75
2023-04-16T13:39:22.419Z,25.25
2023-04-16T13:41:51.291Z,24.25
2023-04-16T13:44:18.827Z,25.40
2023-04-16T13:46:47.719Z,28.38
2023-04-16T13:49:16.933Z,25.38
2023-04-16T13:51:45.036Z,28.58
2023-04-16T13:54:12.580Z,27.20
2023-04-16T13:56:40.911Z,31.02
2023-04-16T13:59:08.777Z,29.38
2023-04-16T14:01:36.582Z,29.83
2023-04-16T14:04:06.382Z,25.08
2023-04-16T14:06:35.905Z,25.67
2023-04-16T14:09:04.530Z,26.27
2023-04-16T14:11:32.236Z,35.50
2023-04-16T14:13:59.782Z,25.73
2023-04-16T14:16:27.531Z,35.20
2023-04-16T14:18:55.332Z,26.85
2023-04-16T14:21:22.992Z,29.00
2023-04-16T14:23:51.907Z,32.45
2023-04-16T14:26:19.459Z,38.15
2023-04-16T14:28:46.952Z,35.38
2023-04-16T14:31:14.518Z,35.38
2023-04-16T14:33:42.130Z,36.83
2023-04-16T14:36:09.922Z,31.02
2023-04-16T14:38:37.429Z,28.02
2023-04-16T14:41:06.395Z,33.20
2023-04-16T14:43:34.277Z,26.20
2023-04-16T14:46:03.449Z,25.58
2023-04-16T14:48:31.075Z,24.05
2023-04-16T14:50:58.607Z,24.58
2023-04-16T14:53:26.113Z,24.80
2023-04-16T14:55:53.770Z,26.48
2023-04-16T14:58:22.879Z,26.17
2023-04-16T15:00:50.506Z,26.00
2023-04-16T15:03:18.285Z,27.00
2023-04-16T15:05:47.489Z,24.75
2023-04-16T15:08:16.098Z,24.58
2023-04-16T15:10:45.751Z,23.92
2023-04-16T15:13:13.395Z,23.52
2023-04-16T15:15:42.222Z,23.88
2023-04-16T15:18:09.851Z,24.70
2023-04-16T15:20:37.361Z,24.75
2023-04-16T15:23:05.142Z,23.98
2023-04-16T15:25:32.614Z,23.70
2023-04-16T15:28:02.459Z,22.88
2023-04-16T15:30:29.999Z,22.02
2023-04-16T15:32:58.878Z,23.42
2023-04-16T15:35:26.419Z,21.08
2023-04-16T15:37:55.398Z,22.20
2023-04-16T15:40:22.920Z,22.33
2023-04-16T15:42:50.429Z,22.20
2023-04-16T15:45:17.933Z,22.30
2023-04-16T15:47:47.970Z,23.00
2023-04-16T15:50:17.019Z,23.10
2023-04-16T15:52:44.547Z,25.48
2023-04-16T15:55:12.173Z,23.25
2023-04-16T15:57:39.809Z,22.98
2023-04-16T16:00:13.510Z,22.50
2023-04-16T16:02:41.779Z,18.52
2023-04-16T16:05:10.771Z,20.40
2023-04-16T16:07:39.715Z,17.73
2023-04-16T16:10:08.645Z,17.38
2023-04-16T16:12:36.488Z,18.45
2023-04-16T16:15:04.689Z,17.17
2023-04-16T16:17:32.272Z,17.45
2023-04-16T16:20:00.241Z,18.88
2023-04-16T16:22:27.768Z,18.08
2023-04-16T16:24:57.610Z,19.67
2023-04-16T16:27:25.123Z,17.65
2023-04-16T16:29:52.628Z,18.73
2023-04-16T16:32:20.128Z,18.77
2023-04-16T16:34:47.667Z,19.17
2023-04-16T16:37:15.436Z,17.65
2023-04-16T16:39:42.929Z,20.48
2023-04-16T16:42:11.927Z,18.13
2023-04-16T16:44:39.522Z,18.15
2023-04-16T16:47:07.063Z,20.48
2023-04-16T16:49:34.597Z,17.17
2023-04-16T16:52:02.153Z,17.33
2023-04-16T16:54:29.677Z,17.42
2023-04-16T16:56:57.157Z,17.02
2023-04-16T16:59:26.239Z,17.65
2023-04-16T17:01:53.771Z,18.13
2023-04-16T17:04:21.435Z,24.55
2023-04-16T17:06:49.221Z,19.33
2023-04-16T17:09:16.782Z,16.50
2023-04-16T17:11:44.294Z,17.65
2023-04-16T17:14:13.933Z,16.73
2023-04-16T17:16:42.850Z,14.85
2023-04-16T17:19:12.359Z,14.75
2023-04-16T17:21:39.948Z,14.85
2023-04-16T17:24:08.071Z,14.30
2023-04-16T17:26:35.566Z,13.65
2023-04-16T17:29:04.415Z,14.82
2023-04-16T17:31:32.030Z,14.45
2023-04-16T17:34:00.946Z,15.98
2023-04-16T17:36:28.426Z,12.40
2023-04-16T17:38:56.026Z,13.55
2023-04-16T17:41:23.509Z,16.30
2023-04-16T17:43:51.309Z,15.40
2023-04-16T17:46:18.859Z,13.80
2023-04-16T17:48:47.904Z,15.50
2023-04-16T17:51:16.983Z,13.52
2023-04-16T17:53:44.724Z,16.10
2023-04-16T17:56:12.401Z,16.17
2023-04-16T17:58:39.907Z,16.23
2023-04-16T18:01:07.450Z,16.88
2023-04-16T18:03:35.160Z,15.63
2023-04-16T18:06:02.710Z,15.25
2023-04-16T18:08:32.710Z,17.00
2023-04-16T18:11:00.179Z,15.63
2023-04-16T18:13:27.665Z,16.90
2023-04-16T18:15:55.535Z,14.70
2023-04-16T18:18:23.134Z,15.35
2023-04-16T18:20:50.622Z,16.55
2023-04-16T18:23:18.166Z,17.85
2023-04-16T18:25:48.817Z,18.08
2023-04-16T18:28:17.552Z,17.77
2023-04-16T18:30:45.309Z,17.40
2023-04-16T18:33:42.807Z,16.63
2023-04-16T18:36:01.525Z,16.83
2023-04-16T18:38:30.355Z,16.80
2023-04-16T18:40:59.247Z,21.38
2023-04-16T18:43:26.940Z,20.90
2023-04-16T18:45:54.428Z,25.65
2023-04-16T18:48:21.961Z,24.27
2023-04-16T18:50:49.467Z,21.77
2023-04-16T18:53:17.201Z,17.85
2023-04-16T18:55:44.714Z,17.48
2023-04-16T18:58:13.532Z,20.10
2023-04-16T19:00:41.127Z,17.10
2023-04-16T19:03:09.604Z,21.45
2023-04-16T19:05:37.129Z,18.75
2023-04-16T19:08:04.775Z,18.27
2023-04-16T19:10:32.339Z,16.60
2023-04-16T19:12:59.848Z,16.92
2023-04-16T19:15:31.577Z,15.75
2023-04-16T19:20:27.683Z,16.52
2023-04-16T19:22:55.367Z,15.98
2023-04-16T19:25:22.933Z,16.42
2023-04-16T19:27:51.134Z,17.30
2023-04-16T19:30:19.070Z,16.98
2023-04-16T19:32:47.987Z,17.42
2023-04-16T19:35:15.621Z,17.38
2023-04-16T19:37:43.503Z,16.65
2023-04-16T19:40:11.675Z,15.07
2023-04-16T19:42:39.940Z,15.38
2023-04-16T19:45:08.612Z,14.50
2023-04-16T19:47:36.152Z,15.73
2023-04-16T19:50:05.427Z,15.52
2023-04-16T19:52:37.311Z,16.75
2023-04-16T19:55:05.385Z,16.33
2023-04-16T19:57:33.050Z,15.55
2023-04-16T20:00:00.782Z,16.02
2023-04-16T20:02:28.420Z,15.32
2023-04-16T20:04:55.950Z,12.80
2023-04-16T20:07:24.775Z,15.45
2023-04-16T20:09:53.336Z,15.55
2023-04-16T20:12:20.995Z,13.38
2023-04-16T20:14:48.522Z,15.43
2023-04-16T20:17:18.594Z,15.30
2023-04-16T20:19:49.383Z,14.75
2023-04-16T20:22:18.620Z,14.25
2023-04-16T20:24:48.193Z,13.60
2023-04-16T20:27:16.812Z,13.80
2023-04-16T20:29:44.315Z,17.23
2023-04-16T20:32:11.800Z,17.52
2023-04-16T20:34:40.518Z,17.73
2023-04-16T20:37:08.068Z,16.63
2023-04-16T20:39:37.178Z,16.10
2023-04-16T20:42:10.369Z,17.08
2023-04-16T20:44:41.325Z,17.75
2023-04-16T20:47:09.256Z,15.38
2023-04-16T20:49:38.446Z,17.35
2023-04-16T20:52:07.272Z,15.50
2023-04-16T20:54:35.047Z,15.82
2023-04-16T20:57:04.785Z,16.92
2023-04-16T20:59:33.911Z,15.38
2023-04-16T21:02:01.647Z,15.20
2023-04-16T21:04:29.304Z,15.45
2023-04-16T21:06:56.850Z,15.10
2023-04-16T21:09:24.697Z,14.50
2023-04-16T21:11:52.438Z,15.52
2023-04-16T21:14:19.941Z,15.27
2023-04-16T21:16:48.781Z,14.13
2023-04-16T21:19:16.289Z,15.63
2023-04-16T21:21:43.808Z,15.30
2023-04-16T21:24:11.366Z,15.88
2023-04-16T21:26:38.862Z,16.70
2023-04-16T21:29:06.379Z,14.60
2023-04-16T21:31:33.921Z,16.15
2023-04-16T21:34:02.790Z,14.95
2023-04-16T21:36:32.071Z,15.77
2023-04-16T21:38:59.587Z,16.40
2023-04-16T21:41:27.153Z,16.33
2023-04-16T21:43:54.714Z,15.55
2023-04-16T21:46:22.572Z,14.43
2023-04-16T21:48:50.788Z,15.30
2023-04-16T21:51:20.097Z,15.35
2023-04-16T21:53:47.602Z,16.27
2023-04-16T21:56:15.173Z,15.65
2023-04-16T21:58:42.688Z,15.63
2023-04-16T22:01:11.050Z,14.02
2023-04-16T22:03:40.349Z,16.02
2023-04-16T22:06:08.730Z,14.48
2023-04-16T22:08:37.904Z,14.43
2023-04-16T22:11:05.588Z,15.20
2023-04-16T22:13:33.182Z,15.57
2023-04-16T22:16:02.319Z,15.02
2023-04-16T22:18:32.866Z,13.90
2023-04-16T22:21:00.799Z,15.10
2023-04-16T22:23:28.409Z,14.95
2023-04-16T22:25:57.648Z,14.60
2023-04-16T22:28:25.325Z,15.48
2023-04-16T22:30:52.833Z,13.95
2023-04-16T22:33:20.362Z,13.60
2023-04-16T22:35:48.001Z,13.07
2023-04-16T22:38:16.489Z,14.55
2023-04-16T22:40:44.158Z,12.98
2023-04-16T22:43:12.986Z,13.38
2023-04-16T22:45:41.106Z,12.13
2023-04-16T22:48:08.691Z,12.35
2023-04-16T22:50:36.220Z,11.80
2023-04-16T22:53:03.790Z,12.63
2023-04-16T22:55:31.276Z,12.18
2023-04-16T22:57:58.834Z,12.32
2023-04-16T23:00:28.446Z,11.40
2023-04-16T23:02:56.038Z,11.80
2023-04-16T23:05:23.597Z,12.10
2023-04-16T23:07:51.137Z,10.95
2023-04-16T23:10:18.620Z,11.93
2023-04-16T23:12:46.153Z,12.20
2023-04-16T23:15:14.439Z,12.40
2023-04-16T23:17:43.396Z,12.25
2023-04-16T23:20:12.165Z,11.43
2023-04-16T23:22:39.693Z,12.20
2023-04-16T23:25:08.812Z,11.85
2023-04-16T23:27:36.390Z,11.30
2023-04-16T23:30:04.564Z,12.00
2023-04-16T23:32:33.969Z,11.63
2023-04-16T23:35:02.967Z,10.75
2023-04-16T23:37:30.520Z,11.27
2023-04-16T23:39:58.057Z,10.27
2023-04-16T23:42:25.559Z,11.80
2023-04-16T23:44:53.129Z,10.82
2023-04-16T23:47:20.684Z,10.55
2023-04-16T23:49:48.200Z,11.38
2023-04-16T23:52:17.019Z,11.65
2023-04-16T23:54:44.503Z,10.65
2023-04-16T23:57:12.011Z,11.13
2023-04-16T23:59:39.615Z,11.25
